createdAt,value
2022-11-07T00:03:24.313Z,42.20
2022-11-07T00:08:32.162Z,42.25
2022-11-07T00:13:34.445Z,42.34
2022-11-07T00:18:36.774Z,42.14
2022-11-07T00:23:41.249Z,42.25
2022-11-07T00:28:44.371Z,42.16
2022-11-07T00:33:47.182Z,42.31
2022-11-07T00:38:49.320Z,42.31
2022-11-07T00:43:52.312Z,42.30
2022-11-07T00:48:54.239Z,42.43
2022-11-07T00:53:56.260Z,42.19
2022-11-07T00:58:59.558Z,42.13
2022-11-07T01:04:20.615Z,42.52
2022-11-07T01:09:23.001Z,42.24
2022-11-07T01:14:25.351Z,42.48
2022-11-07T01:19:27.521Z,42.20
2022-11-07T01:24:29.721Z,42.29
2022-11-07T01:29:31.671Z,42.74
2022-11-07T01:34:33.543Z,42.33
2022-11-07T01:39:35.482Z,42.38
2022-11-07T01:44:37.449Z,42.71
2022-11-07T01:49:43.217Z,42.58
2022-11-07T01:54:48.266Z,42.55
2022-11-07T01:59:53.303Z,42.37
2022-11-07T02:04:58.166Z,42.41
2022-11-07T02:10:00.395Z,42.45
2022-11-07T02:15:02.564Z,42.45
2022-11-07T02:20:04.840Z,42.41
2022-11-07T02:25:13.277Z,42.55
2022-11-07T02:30:21.691Z,42.70
2022-11-07T02:35:45.580Z,42.79
2022-11-07T02:40:55.079Z,42.56
2022-11-07T02:46:00.617Z,42.77
2022-11-07T02:51:02.497Z,42.74
2022-11-07T02:56:05.102Z,42.88
2022-11-07T03:01:07.549Z,42.56
2022-11-07T03:06:12.456Z,43.00
2022-11-07T03:11:14.804Z,42.67
2022-11-07T03:16:18.129Z,43.07
2022-11-07T03:21:20.045Z,42.72
2022-11-07T03:26:22.018Z,42.86
2022-11-07T03:31:23.894Z,43.09
2022-11-07T03:36:25.801Z,42.82
2022-11-07T03:41:27.780Z,43.06
2022-11-07T03:46:29.772Z,42.85
2022-11-07T03:51:31.644Z,42.69
2022-11-07T03:56:33.453Z,42.98
2022-11-07T04:01:35.412Z,42.95
2022-11-07T04:06:37.229Z,43.00
2022-11-07T04:11:57.850Z,42.99
2022-11-07T04:17:18.688Z,42.87
2022-11-07T04:22:20.766Z,43.01
2022-11-07T04:27:41.455Z,42.93
2022-11-07T04:32:43.433Z,42.94
2022-11-07T04:37:45.523Z,42.86
2022-11-07T04:42:48.329Z,42.73
2022-11-07T04:47:50.251Z,43.13
2022-11-07T04:52:52.122Z,42.74
2022-11-07T04:57:54.049Z,42.96
2022-11-07T05:02:56.268Z,42.92
2022-11-07T05:07:58.302Z,42.86
2022-11-07T05:13:00.348Z,43.13
2022-11-07T05:18:02.488Z,43.10
2022-11-07T05:23:19.272Z,43.17
2022-11-07T05:28:31.263Z,43.22
2022-11-07T05:33:36.283Z,43.27
2022-11-07T05:38:39.870Z,42.97
2022-11-07T05:43:41.889Z,43.24
2022-11-07T05:48:43.876Z,43.17
2022-11-07T05:53:45.849Z,43.45
2022-11-07T05:58:47.602Z,43.33
2022-11-07T06:03:49.475Z,43.05
2022-11-07T06:08:51.525Z,43.26
2022-11-07T06:13:54.381Z,43.10
2022-11-07T06:18:56.565Z,43.32
2022-11-07T06:23:59.474Z,43.23
2022-11-07T06:29:01.478Z,43.02
2022-11-07T06:34:04.042Z,43.48
2022-11-07T06:39:06.103Z,43.04
2022-11-07T06:44:08.079Z,43.09
2022-11-07T06:49:10.687Z,43.28
2022-11-07T06:54:13.543Z,43.27
2022-11-07T06:59:15.614Z,43.21
2022-11-07T07:04:17.692Z,43.36
2022-11-07T07:09:19.837Z,43.00
2022-11-07T07:14:21.832Z,43.05
2022-11-07T07:19:23.888Z,43.00
2022-11-07T07:24:25.753Z,43.22
2022-11-07T07:29:27.723Z,43.19
2022-11-07T07:34:30.599Z,43.33
2022-11-07T07:39:32.432Z,43.15
2022-11-07T07:44:34.608Z,43.05
2022-11-07T07:49:36.852Z,43.51
2022-11-07T07:54:38.791Z,43.47
2022-11-07T07:59:41.026Z,43.45
2022-11-07T08:04:43.777Z,43.31
2022-11-07T08:09:45.829Z,43.38
2022-11-07T08:14:47.718Z,43.38
2022-11-07T08:19:49.819Z,43.23
2022-11-07T08:24:51.861Z,43.37
2022-11-07T08:29:54.006Z,43.36
2022-11-07T08:34:56.422Z,43.26
2022-11-07T08:39:58.568Z,43.28
2022-11-07T08:45:00.857Z,43.29
2022-11-07T08:50:03.133Z,43.32
2022-11-07T08:55:06.059Z,43.31
2022-11-07T09:00:08.501Z,43.16
2022-11-07T09:05:10.724Z,43.49
2022-11-07T09:10:12.674Z,43.51
2022-11-07T09:15:14.918Z,43.67
2022-11-07T09:20:17.519Z,44.65
2022-11-07T09:25:19.689Z,44.99
2022-11-07T09:30:22.496Z,46.30
2022-11-07T09:35:24.667Z,47.42
2022-11-07T09:40:51.886Z,48.27
2022-11-07T09:46:12.188Z,48.02
2022-11-07T09:51:38.517Z,47.99
2022-11-07T09:56:42.451Z,47.87
2022-11-07T10:01:47.728Z,47.86
2022-11-07T10:07:07.376Z,48.06
2022-11-07T10:12:17.380Z,47.58
2022-11-07T10:17:31.233Z,47.92
2022-11-07T10:22:35.697Z,48.14
2022-11-07T10:27:38.903Z,48.17
2022-11-07T10:32:56.988Z,47.97
2022-11-07T10:38:01.987Z,48.09
2022-11-07T10:43:07.572Z,47.99
2022-11-07T10:48:13.704Z,48.10
2022-11-07T10:53:19.806Z,48.15
2022-11-07T10:58:27.980Z,48.23
2022-11-07T11:03:43.776Z,48.08
2022-11-07T11:08:48.076Z,47.69
2022-11-07T11:14:01.197Z,47.31
2022-11-07T11:19:03.834Z,47.72
2022-11-07T11:24:14.724Z,47.38
2022-11-07T11:29:43.523Z,46.98
2022-11-07T11:35:08.575Z,46.71
2022-11-07T11:40:22.693Z,45.98
2022-11-07T11:45:55.393Z,46.08
2022-11-07T11:51:05.548Z,45.84
2022-11-07T11:56:07.145Z,45.97
2022-11-07T12:06:38.682Z,45.67
2022-11-07T12:11:48.288Z,45.53
2022-11-07T12:17:05.866Z,45.37
2022-11-07T12:22:19.750Z,45.65
2022-11-07T12:27:27.116Z,45.58
2022-11-07T12:32:44.106Z,45.47
2022-11-07T12:38:15.539Z,45.42
2022-11-07T12:43:32.476Z,45.54
2022-11-07T12:48:57.319Z,45.87
2022-11-07T12:54:37.758Z,45.41
2022-11-07T12:59:43.665Z,45.43
2022-11-07T13:05:04.008Z,45.57
2022-11-07T13:10:16.138Z,45.65
2022-11-07T13:15:18.529Z,45.22
2022-11-07T13:20:31.411Z,45.30
2022-11-07T13:25:34.936Z,45.70
2022-11-07T13:30:40.272Z,45.58
2022-11-07T13:35:54.339Z,45.20
2022-11-07T13:41:07.786Z,45.42
2022-11-07T13:46:21.767Z,45.67
2022-11-07T13:51:37.588Z,45.26
2022-11-07T13:56:47.365Z,45.40
2022-11-07T14:01:56.819Z,44.98
2022-11-07T14:07:01.657Z,45.27
2022-11-07T14:12:03.710Z,45.40
2022-11-07T14:17:05.562Z,45.54
2022-11-07T14:22:21.790Z,45.43
2022-11-07T14:27:25.051Z,45.20
2022-11-07T14:32:31.726Z,45.54
2022-11-07T14:37:34.878Z,45.23
2022-11-07T14:42:36.881Z,45.46
2022-11-07T14:47:39.518Z,45.07
2022-11-07T14:52:53.503Z,45.17
2022-11-07T14:57:55.472Z,45.07
2022-11-07T15:02:58.949Z,45.54
2022-11-07T15:08:02.368Z,45.28
2022-11-07T15:13:18.733Z,45.64
2022-11-07T15:18:27.678Z,45.39
2022-11-07T15:23:32.263Z,45.38
2022-11-07T15:28:43.285Z,45.30
2022-11-07T15:33:45.366Z,44.90
2022-11-07T15:38:48.655Z,45.45
2022-11-07T15:43:50.488Z,45.19
2022-11-07T15:48:52.968Z,45.09
2022-11-07T15:53:54.763Z,45.40
2022-11-07T15:58:56.752Z,45.41
2022-11-07T16:03:58.411Z,45.08
2022-11-07T16:09:00.168Z,45.46
2022-11-07T16:14:35.101Z,45.31
2022-11-07T16:19:29.996Z,45.33
2022-11-07T16:24:32.047Z,45.21
2022-11-07T16:29:34.109Z,45.09
2022-11-07T16:34:36.217Z,45.14
2022-11-07T16:39:38.760Z,44.96
2022-11-07T16:44:41.128Z,45.20
2022-11-07T16:49:43.449Z,45.39
2022-11-07T16:54:46.442Z,45.39
2022-11-07T16:59:48.387Z,45.42
2022-11-07T17:04:51.891Z,45.50
2022-11-07T17:09:53.956Z,45.20
2022-11-07T17:14:55.774Z,45.54
2022-11-07T17:19:57.725Z,45.54
2022-11-07T17:24:59.526Z,45.12
2022-11-07T17:30:04.616Z,45.32
2022-11-07T17:35:31.201Z,45.15
2022-11-07T17:40:34.804Z,45.43
2022-11-07T17:45:36.960Z,45.05
2022-11-07T17:50:38.699Z,45.24
2022-11-07T17:55:40.500Z,45.37
2022-11-07T18:00:42.242Z,45.22
2022-11-07T18:05:44.194Z,45.05
2022-11-07T18:10:45.831Z,45.21
2022-11-07T18:15:47.550Z,45.05
2022-11-07T18:20:49.954Z,45.25
2022-11-07T18:26:01.945Z,45.21
2022-11-07T18:31:10.456Z,44.83
2022-11-07T18:36:15.172Z,45.22
2022-11-07T18:41:19.925Z,45.15
2022-11-07T18:46:22.686Z,45.19
2022-11-07T18:51:24.929Z,45.31
2022-11-07T18:56:27.016Z,44.94
2022-11-07T19:01:32.544Z,45.17
2022-11-07T19:06:34.694Z,45.15
2022-11-07T19:11:36.365Z,45.23
2022-11-07T19:16:38.105Z,44.96
2022-11-07T19:21:42.824Z,44.85
2022-11-07T19:26:45.912Z,44.83
2022-11-07T19:31:47.765Z,44.88
2022-11-07T19:36:49.636Z,45.09
2022-11-07T19:41:51.731Z,45.08
2022-11-07T19:46:53.552Z,45.11
2022-11-07T19:51:55.807Z,44.98
2022-11-07T19:56:57.930Z,44.98
2022-11-07T20:02:30.731Z,44.70
2022-11-07T20:07:22.321Z,44.89
2022-11-07T20:12:24.500Z,44.86
2022-11-07T20:17:26.846Z,44.70
2022-11-07T20:22:29.574Z,44.77
2022-11-07T20:27:33.116Z,44.60
2022-11-07T20:32:35.914Z,44.79
2022-11-07T20:37:38.203Z,44.74
2022-11-07T20:42:40.546Z,44.53
2022-11-07T20:47:42.740Z,44.65
2022-11-07T20:52:44.489Z,44.71
2022-11-07T20:57:46.503Z,44.66
2022-11-07T21:02:48.564Z,44.59
2022-11-07T21:07:50.985Z,44.85
2022-11-07T21:12:53.774Z,44.65
2022-11-07T21:17:55.803Z,44.75
2022-11-07T21:22:58.132Z,44.46
2022-11-07T21:28:00.414Z,44.43
2022-11-07T21:33:02.215Z,44.68
2022-11-07T21:38:03.938Z,44.79
2022-11-07T21:43:05.803Z,44.47
2022-11-07T21:48:08.120Z,44.91
2022-11-07T21:53:10.028Z,44.99
2022-11-07T21:58:11.832Z,44.68
2022-11-07T22:03:13.765Z,44.93
2022-11-07T22:08:21.074Z,44.77
2022-11-07T22:13:25.422Z,45.10
2022-11-07T22:18:27.438Z,44.98
2022-11-07T22:23:33.980Z,44.74
2022-11-07T22:28:38.530Z,45.08
2022-11-07T22:33:43.687Z,44.95
2022-11-07T22:38:45.967Z,44.55
2022-11-07T22:43:48.353Z,44.81
2022-11-07T22:48:51.750Z,44.78
2022-11-07T22:54:02.592Z,44.67
2022-11-07T22:59:05.968Z,44.90
2022-11-07T23:04:12.281Z,44.82
2022-11-07T23:09:15.898Z,44.82
2022-11-07T23:14:20.052Z,44.90
2022-11-07T23:19:25.127Z,44.44
2022-11-07T23:24:27.240Z,45.08
2022-11-07T23:29:29.056Z,44.85
2022-11-07T23:34:31.054Z,44.59
2022-11-07T23:39:32.862Z,44.81
2022-11-07T23:44:54.829Z,44.71
2022-11-07T23:50:15.192Z,45.05
2022-11-07T23:55:35.826Z,44.89
